No particular awareness of the weather is required.    There are no Weather-warnings


Meteo18 Weather Cam more information Meteo18 Weather Cam


Thunder radar more information blitzortung!


Rain radar more information rain snow radar


Visit our other weather sites:

Template documentation
and downloads

And another site



Weather Underground History page Text

Daily Summary for November 3, 2017 Units:  English    Metric   Both
« Previous Day
Next Day »
Daily Weekly Monthly Yearly Custom
  High: Low: Average:
Temperature: TemperatureC °F 5.5 °F 12.1 °F
Dew Point: DewpointC °F 4.9 °F 9.7 °F
Humidity: Humidity % 65 % 85 %
Wind Speed: WindSpeedKMH mph 0.0 mph 1.7 mph
Wind Gust: WindSpeedGustKMH mph - -
Wind:- - ESE
Pressure: PressurehPa in 1012.1 in -
Precipitation: 0.0 in    
Historical Graphs
 
 
Tabular Data for November 3, 2017
Time Temperature Dew Point Pressure Wind Wind Speed Wind Gust Humidity Rainfall Rate (Hourly)
TemperatureC °F DewpointC °F PressurehPa in Calm     Humidity % HourlyPrecipMM in
00:02 9.7 °F 9.1 °F 1018.5 in Calm   1.6 mph 96 % 0.0 in
00:07 9.7 °F 9.1 °F 1018.5 in NNE 3.2 mph 3.2 mph 96 % 0.0 in
00:12 9.4 °F 8.6 °F 1018.5 in North 3.2 mph 3.2 mph 95 % 0.0 in
00:17 9.5 °F 8.9 °F 1018.5 in North 3.2 mph 4.8 mph 96 % 0.0 in
00:22 9.4 °F 8.8 °F 1018.5 in North 1.6 mph 4.8 mph 96 % 0.0 in
00:27 9.5 °F 8.9 °F 1018.5 in Calm   4.8 mph 96 % 0.0 in
00:32 9.5 °F 8.9 °F 1018.5 in Calm   3.2 mph 96 % 0.0 in
00:37 9.3 °F 8.7 °F 1018.5 in Calm   3.2 mph 96 % 0.0 in
00:42 9.3 °F 8.7 °F 1018.5 in NNW 1.6 mph 1.6 mph 96 % 0.0 in
00:47 9.4 °F 8.8 °F 1018.5 in NNW 1.6 mph 3.2 mph 96 % 0.0 in
00:52 9.5 °F 8.9 °F 1018.5 in Calm   3.2 mph 96 % 0.0 in
00:57 9.3 °F 8.7 °F 1018.5 in NNW 1.6 mph 3.2 mph 96 % 0.0 in
01:02 9.3 °F 8.7 °F 1018.5 in NNW 1.6 mph 3.2 mph 96 % 0.0 in
01:07 9.5 °F 9.0 °F 1018.5 in NNW 1.6 mph 3.2 mph 97 % 0.0 in
01:12 9.3 °F 8.7 °F 1018.5 in North 1.6 mph 3.2 mph 96 % 0.0 in
01:17 9.2 °F 8.6 °F 1018.5 in NNW 1.6 mph 3.2 mph 96 % 0.0 in
01:22 9.4 °F 8.9 °F 1018.2 in NNW 3.2 mph 3.2 mph 97 % 0.0 in
01:27 9.5 °F 9.0 °F 1018.2 in Calm   3.2 mph 97 % 0.0 in
01:37 9.3 °F 8.7 °F 1018.2 in Calm   3.2 mph 96 % 0.0 in
01:42 9.2 °F 8.6 °F 1018.2 in Calm   1.6 mph 96 % 0.0 in
01:47 8.9 °F 8.3 °F 1018.2 in Calm   1.6 mph 96 % 0.0 in
01:57 8.5 °F 7.9 °F 1018.2 in WNW 1.6 mph 1.6 mph 96 % 0.0 in
02:02 8.5 °F 7.9 °F 1018.2 in Calm   1.6 mph 96 % 0.0 in
02:07 8.8 °F 8.3 °F 1017.8 in Calm   1.6 mph 97 % 0.0 in
02:12 9.1 °F 8.6 °F 1018.2 in Calm   1.6 mph 97 % 0.0 in
02:17 9.3 °F 8.8 °F 1018.2 in Calm   1.6 mph 97 % 0.0 in
02:22 9.3 °F 8.8 °F 1017.8 in Calm   1.6 mph 97 % 0.0 in
02:32 9.3 °F 8.8 °F 1017.8 in Calm   1.6 mph 97 % 0.0 in
02:37 9.1 °F 8.5 °F 1018.2 in Calm   1.6 mph 96 % 0.0 in
02:42 8.4 °F 7.6 °F 1017.8 in Calm   1.6 mph 95 % 0.0 in
02:47 8.3 °F 7.7 °F 1017.8 in Calm     96 % 0.0 in
02:52 8.6 °F 8.2 °F 1017.8 in Calm     97 % 0.0 in
02:57 8.2 °F 7.6 °F 1017.8 in Calm   1.6 mph 96 % 0.0 in
03:02 8.3 °F 7.7 °F 1017.8 in WNW 1.6 mph 1.6 mph 96 % 0.0 in
03:07 8.6 °F 8.2 °F 1017.8 in Calm   1.6 mph 97 % 0.0 in
03:12 8.6 °F 8.2 °F 1017.8 in Calm   1.6 mph 97 % 0.0 in
03:17 8.4 °F 8.0 °F 1017.8 in North 1.6 mph 1.6 mph 97 % 0.0 in
03:22 8.6 °F 8.2 °F 1017.8 in North 1.6 mph 3.2 mph 97 % 0.0 in
03:27 8.7 °F 8.3 °F 1017.8 in North 1.6 mph 3.2 mph 97 % 0.0 in
03:32 8.6 °F 8.2 °F 1017.8 in North 1.6 mph 3.2 mph 97 % 0.0 in
03:37 8.6 °F 8.2 °F 1017.8 in Calm   3.2 mph 97 % 0.0 in
03:42 8.7 °F 8.7 °F 1017.8 in Calm   3.2 mph 100 % 0.0 in
03:47 8.7 °F 8.7 °F 1017.5 in Calm   3.2 mph 100 % 0.0 in
03:52 8.7 °F 8.7 °F 1017.8 in Calm   1.6 mph 100 % 0.0 in
08:17 6.0 °F 5.6 °F 1016.8 in Calm   -1607.4 mph 97 % 0 in
08:22 5.9 °F 5.5 °F 1016.8 in NNE 1.6 mph 1.6 mph 97 % 0.0 in
08:27 5.5 °F 4.9 °F 1016.8 in Calm   1.6 mph 96 % 0.0 in
08:32 5.8 °F 5.4 °F 1016.8 in Calm   1.6 mph 97 % 0.0 in
08:37 6.2 °F 5.8 °F 1016.8 in Calm   1.6 mph 97 % 0.0 in
08:42 6.4 °F 6.0 °F 1016.8 in Calm     97 % 0.0 in
08:47 6.6 °F 6.3 °F 1017.2 in Calm     98 % 0.0 in
08:52 6.6 °F 6.2 °F 1017.2 in Calm     97 % 0.0 in
08:57 6.7 °F 6.3 °F 1017.2 in Calm   1.6 mph 97 % 0.0 in
09:02 6.9 °F 6.5 °F 1017.2 in Calm   1.6 mph 97 % 0.0 in
09:07 7.0 °F 6.6 °F 1016.8 in Calm   1.6 mph 97 % 0.0 in
09:12 7.2 °F 6.8 °F 1016.8 in Calm   1.6 mph 97 % 0.0 in
09:17 7.3 °F 6.9 °F 1016.8 in Calm   1.6 mph 97 % 0.0 in
09:22 7.4 °F 7.0 °F 1016.8 in Calm     97 % 0.0 in
09:27 7.4 °F 7.0 °F 1016.5 in Calm     97 % 0.0 in
09:37 7.6 °F 7.2 °F 1016.5 in Calm     97 % 0.0 in
09:42 8.0 °F 7.6 °F 1016.8 in Calm     97 % 0.0 in
09:47 8.2 °F 7.9 °F 1016.8 in East 1.6 mph   98 % 0.0 in
09:52 8.3 °F 8.0 °F 1016.8 in ENE 3.2 mph 3.2 mph 98 % 0.0 in
10:02 8.7 °F 8.3 °F 1016.5 in ENE 1.6 mph 4.8 mph 97 % 0.0 in
10:07 9.1 °F 8.8 °F 1016.5 in East 3.2 mph 4.8 mph 98 % 0.0 in
10:12 9.2 °F 8.9 °F 1016.5 in ENE 1.6 mph 4.8 mph 98 % 0.0 in
10:17 9.4 °F 9.1 °F 1016.5 in ENE 1.6 mph 6.4 mph 98 % 0.0 in
10:22 9.6 °F 9.3 °F 1016.5 in Calm   6.4 mph 98 % 0.0 in
10:27 9.7 °F 9.4 °F 1016.5 in Calm   6.4 mph 98 % 0.0 in
10:32 9.7 °F 9.2 °F 1016.5 in Calm   3.2 mph 97 % 0.0 in
10:37 9.9 °F 9.4 °F 1016.5 in Calm   3.2 mph 97 % 0.0 in
10:42 10.2 °F 9.7 °F 1016.5 in Calm   3.2 mph 97 % 0.0 in
10:47 10.4 °F 10.1 °F 1016.5 in Calm   3.2 mph 98 % 0.0 in
10:52 10.7 °F 10.2 °F 1016.5 in Calm   1.6 mph 97 % 0.0 in
10:57 10.8 °F 10.3 °F 1016.5 in Calm     97 % 0.0 in
11:02 10.9 °F 10.4 °F 1016.1 in Calm     97 % 0.0 in
11:07 11.1 °F 10.6 °F 1016.1 in NE 3.2 mph   97 % 0.0 in
11:12 11.3 °F 10.8 °F 1016.1 in East 1.6 mph 4.8 mph 97 % 0.0 in
11:17 11.4 °F 10.8 °F 1016.1 in NE 3.2 mph 6.4 mph 96 % 0.0 in
11:22 11.8 °F 11.3 °F 1016.1 in Calm   6.4 mph 97 % 0.0 in
11:27 12.0 °F 11.4 °F 1016.1 in Calm   6.4 mph 96 % 0.0 in
11:32 12.3 °F 11.7 °F 1016.1 in Calm   4.8 mph 96 % 0.0 in
11:37 12.4 °F 11.5 °F 1015.8 in ESE 1.6 mph 4.8 mph 94 % 0.0 in
11:42 12.7 °F 11.8 °F 1015.8 in NE 4.8 mph 4.8 mph 94 % 0.0 in
11:47 12.9 °F 11.5 °F 1015.8 in NNE 1.6 mph 6.4 mph 91 % 0.0 in
11:52 13.2 °F 11.6 °F 1015.8 in NE 3.2 mph 6.4 mph 90 % 0.0 in
11:57 13.3 °F 11.4 °F 1015.8 in ENE 3.2 mph 6.4 mph 88 % 0.0 in
12:07 13.7 °F 11.4 °F 1015.8 in NE 4.8 mph 6.4 mph 86 % 0.0 in
12:12 13.9 °F 11.4 °F 1015.8 in NNW 3.2 mph 8.0 mph 85 % 0.0 in
12:17 14.2 °F 11.5 °F 1015.8 in ENE 4.8 mph 8.0 mph 84 % 0.0 in
12:22 14.4 °F 11.5 °F 1015.5 in NE 4.8 mph 8.0 mph 83 % 0.0 in
12:27 14.6 °F 11.4 °F 1015.5 in NE 1.6 mph 8.0 mph 81 % 0.0 in
12:32 14.8 °F 11.2 °F 1015.5 in ESE 3.2 mph 8.0 mph 79 % 0.0 in
12:37 15.1 °F 11.3 °F 1015.5 in East 6.4 mph 6.4 mph 78 % 0.0 in
12:42 15.4 °F 11.2 °F 1015.5 in East 4.8 mph 8.0 mph 76 % 0.0 in
12:47 15.6 °F 10.8 °F 1015.5 in ENE 3.2 mph 9.7 mph 73 % 0.0 in
12:52 15.6 °F 10.8 °F 1015.1 in ESE 3.2 mph 9.7 mph 73 % 0.0 in
12:57 15.8 °F 11.0 °F 1015.1 in Calm   9.7 mph 73 % 0.0 in
13:02 15.9 °F 10.9 °F 1015.1 in Calm   9.7 mph 72 % 0.0 in
13:07 16.3 °F 11.0 °F 1015.1 in Calm   9.7 mph 71 % 0.0 in
13:12 16.4 °F 11.1 °F 1015.1 in Calm   8.0 mph 71 % 0.0 in
13:17 16.6 °F 10.9 °F 1014.8 in Calm   8.0 mph 69 % 0.0 in
13:22 16.6 °F 10.9 °F 1014.8 in East 1.6 mph 8.0 mph 69 % 0.0 in
13:27 16.6 °F 10.9 °F 1014.8 in SE 4.8 mph 6.4 mph 69 % 0.0 in
13:32 16.7 °F 11.0 °F 1014.8 in ESE 6.4 mph 8.0 mph 69 % 0.0 in
13:37 16.8 °F 11.1 °F 1014.8 in East 3.2 mph 9.7 mph 69 % 0.0 in
13:42 16.8 °F 10.9 °F 1014.4 in ENE 9.7 mph 9.7 mph 68 % 0.0 in
13:47 16.9 °F 11.0 °F 1014.4 in NE 4.8 mph 12.9 mph 68 % 0.0 in
13:52 17.0 °F 10.8 °F 1014.4 in ENE 3.2 mph 12.9 mph 67 % 0.0 in
14:02 17.1 °F 10.9 °F 1014.4 in ENE 6.4 mph 11.3 mph 67 % 0.0 in
14:07 17.3 °F 10.9 °F 1014.4 in ENE 4.8 mph 9.7 mph 66 % 0.0 in
14:12 17.4 °F 11.0 °F 1014.1 in Calm   9.7 mph 66 % 0.0 in
14:17 17.4 °F 11.0 °F 1014.1 in East 6.4 mph 9.7 mph 66 % 0.0 in
14:22 17.6 °F 11.2 °F 1014.1 in East 6.4 mph 9.7 mph 66 % 0.0 in
14:27 17.5 °F 11.1 °F 1014.1 in ENE 4.8 mph 9.7 mph 66 % 0.0 in
14:32 17.6 °F 11.2 °F 1014.1 in East 6.4 mph 9.7 mph 66 % 0.0 in
14:37 17.6 °F 10.9 °F 1014.1 in ENE 3.2 mph 9.7 mph 65 % 0.0 in
14:42 17.7 °F 11.0 °F 1014.1 in Calm   9.7 mph 65 % 0.0 in
14:47 17.6 °F 10.9 °F 1013.8 in NNE 3.2 mph 9.7 mph 65 % 0.0 in
14:52 17.6 °F 10.9 °F 1013.8 in East 4.8 mph 9.7 mph 65 % 0.0 in
14:57 17.4 °F 10.8 °F 1013.8 in ENE 3.2 mph 9.7 mph 65 % 0.0 in
15:02 17.3 °F 10.7 °F 1013.8 in Calm   9.7 mph 65 % 0.0 in
15:07 17.2 °F 11.0 °F 1013.8 in NE 3.2 mph 9.7 mph 67 % 0.0 in
15:12 17.0 °F 10.8 °F 1013.8 in East 1.6 mph 6.4 mph 67 % 0.0 in
15:17 17.0 °F 10.8 °F 1013.8 in ENE 1.6 mph 4.8 mph 67 % 0.0 in
15:22 17.0 °F 10.8 °F 1013.8 in ENE 1.6 mph 4.8 mph 67 % 0.0 in
15:27 16.9 °F 10.7 °F 1013.8 in East 1.6 mph 4.8 mph 67 % 0.0 in
15:32 16.9 °F 10.7 °F 1013.8 in ENE 1.6 mph 4.8 mph 67 % 0.0 in
15:37 16.9 °F 11.0 °F 1013.8 in Calm   4.8 mph 68 % 0.0 in
15:42 16.9 °F 11.0 °F 1013.8 in ENE 1.6 mph 3.2 mph 68 % 0.0 in
15:47 16.8 °F 11.1 °F 1013.8 in Calm   3.2 mph 69 % 0.0 in
15:52 16.8 °F 11.3 °F 1013.4 in NE 1.6 mph 3.2 mph 70 % 0.0 in
15:57 16.7 °F 11.4 °F 1013.4 in NE 6.4 mph 6.4 mph 71 % 0.0 in
16:02 16.4 °F 11.3 °F 1013.4 in NE 4.8 mph 6.4 mph 72 % 0.0 in
16:07 16.3 °F 11.2 °F 1013.4 in NE 1.6 mph 6.4 mph 72 % 0.0 in
16:12 16.2 °F 11.4 °F 1013.4 in NE 4.8 mph 8.0 mph 73 % 0.0 in
16:17 16.0 °F 11.4 °F 1013.4 in NE 4.8 mph 8.0 mph 74 % 0.0 in
16:22 15.9 °F 11.3 °F 1013.4 in NNE 6.4 mph 8.0 mph 74 % 0.0 in
16:27 15.8 °F 11.4 °F 1013.4 in NE 6.4 mph 8.0 mph 75 % 0.0 in
16:32 15.7 °F 11.3 °F 1013.4 in NE 4.8 mph 9.7 mph 75 % 0.0 in
16:37 15.6 °F 11.2 °F 1013.4 in NNE 4.8 mph 9.7 mph 75 % 0.0 in
16:42 15.4 °F 11.2 °F 1013.4 in NE 4.8 mph 8.0 mph 76 % 0.0 in
16:52 15.3 °F 11.3 °F 1013.4 in NE 3.2 mph 8.0 mph 77 % 0.0 in
16:57 15.1 °F 11.1 °F 1013.4 in NNE 4.8 mph 6.4 mph 77 % 0.0 in
17:02 14.9 °F 11.1 °F 1013.4 in NE 6.4 mph 9.7 mph 78 % 0.0 in
17:12 14.8 °F 11.0 °F 1013.4 in NNE 3.2 mph 9.7 mph 78 % 0.0 in
17:17 14.8 °F 11.0 °F 1013.4 in NE 1.6 mph 9.7 mph 78 % 0.0 in
17:22 14.7 °F 10.9 °F 1013.4 in NE 4.8 mph 9.7 mph 78 % 0.0 in
17:27 14.7 °F 10.9 °F 1013.4 in NE 1.6 mph 6.4 mph 78 % 0.0 in
17:32 14.6 °F 11.0 °F 1013.4 in Calm   6.4 mph 79 % 0.0 in
17:37 14.4 °F 10.8 °F 1013.4 in NNE 1.6 mph 6.4 mph 79 % 0.0 in
17:42 14.3 °F 10.9 °F 1013.4 in Calm   6.4 mph 80 % 0.0 in
17:47 14.2 °F 10.8 °F 1013.4 in NE 3.2 mph 4.8 mph 80 % 0.0 in
17:52 14.1 °F 10.9 °F 1013.4 in NE 1.6 mph 4.8 mph 81 % 0.0 in
17:57 14.1 °F 10.9 °F 1013.4 in NNE 1.6 mph 4.8 mph 81 % 0.0 in
18:02 14.1 °F 10.9 °F 1013.4 in NE 1.6 mph 4.8 mph 81 % 0.0 in
18:07 14.0 °F 10.8 °F 1013.4 in Calm   4.8 mph 81 % 0.0 in
18:12 13.9 °F 10.7 °F 1013.4 in Calm   4.8 mph 81 % 0.0 in
18:22 13.7 °F 10.7 °F 1013.4 in NE 6.4 mph 6.4 mph 82 % 0.0 in
18:32 13.9 °F 10.9 °F 1013.1 in NNE 6.4 mph 9.7 mph 82 % 0.0 in
18:37 13.8 °F 10.8 °F 1013.1 in ENE 6.4 mph 12.9 mph 82 % 0.0 in
18:47 13.8 °F 11.0 °F 1013.1 in NE 1.6 mph 11.3 mph 83 % 0.0 in
18:52 13.8 °F 11.0 °F 1013.1 in NE 3.2 mph 8.0 mph 83 % 0.0 in
18:57 13.8 °F 11.0 °F 1013.1 in NE 3.2 mph 8.0 mph 83 % 0.0 in
19:02 13.8 °F 11.0 °F 1013.4 in NE 4.8 mph 8.0 mph 83 % 0.0 in
19:07 13.9 °F 10.9 °F 1013.4 in NE 3.2 mph 8.0 mph 82 % 0.0 in
19:12 13.9 °F 10.9 °F 1013.4 in NNE 3.2 mph 9.7 mph 82 % 0.0 in
19:17 13.8 °F 10.8 °F 1013.1 in NE 4.8 mph 9.7 mph 82 % 0.0 in
19:22 13.8 °F 10.8 °F 1013.1 in NNE 3.2 mph 6.4 mph 82 % 0.0 in
19:27 13.8 °F 10.8 °F 1013.1 in NE 1.6 mph 6.4 mph 82 % 0.0 in
19:32 13.8 °F 10.8 °F 1013.1 in NE 3.2 mph 6.4 mph 82 % 0.0 in
19:37 13.7 °F 10.7 °F 1013.1 in NNE 4.8 mph 6.4 mph 82 % 0.0 in
19:42 13.5 °F 10.5 °F 1013.1 in NE 1.6 mph 4.8 mph 82 % 0.0 in
19:47 13.4 °F 10.6 °F 1013.1 in NE 1.6 mph 4.8 mph 83 % 0.0 in
19:57 13.4 °F 10.6 °F 1013.1 in Calm   6.4 mph 83 % 0.0 in
20:02 13.3 °F 10.5 °F 1013.1 in Calm   4.8 mph 83 % 0.0 in
20:07 13.3 °F 10.5 °F 1012.8 in Calm   4.8 mph 83 % 0.0 in
20:12 13.2 °F 10.4 °F 1013.1 in Calm   3.2 mph 83 % 0.0 in
20:22 13.2 °F 10.4 °F 1013.1 in ENE 3.2 mph 3.2 mph 83 % 0.0 in
20:27 13.2 °F 10.2 °F 1012.8 in ENE 1.6 mph 4.8 mph 82 % 0.0 in
20:32 13.1 °F 10.1 °F 1012.8 in Calm   4.8 mph 82 % 0.0 in
20:37 13.1 °F 10.3 °F 1012.8 in NE 1.6 mph 4.8 mph 83 % 0.0 in
20:42 12.9 °F 10.1 °F 1012.8 in Calm   4.8 mph 83 % 0.0 in
20:52 12.7 °F 9.9 °F 1012.8 in Calm   4.8 mph 83 % 0.0 in
20:57 12.6 °F 10.0 °F 1012.8 in Calm   3.2 mph 84 % 0.0 in
21:02 12.4 °F 9.8 °F 1012.8 in NE 1.6 mph 3.2 mph 84 % 0.0 in
21:07 12.3 °F 9.7 °F 1012.8 in Calm   4.8 mph 84 % 0.0 in
21:12 12.2 °F 9.6 °F 1012.8 in Calm   4.8 mph 84 % 0.0 in
21:17 12.1 °F 9.7 °F 1012.8 in Calm   4.8 mph 85 % 0.0 in
21:22 12.0 °F 9.6 °F 1012.8 in Calm     85 % 0.0 in
21:27 11.9 °F 9.6 °F 1012.8 in Calm     86 % 0.0 in
21:32 11.8 °F 9.5 °F 1012.8 in Calm     86 % 0.0 in
21:42 11.7 °F 9.6 °F 1012.8 in Calm     87 % 0.0 in
21:47 11.7 °F 9.4 °F 1012.8 in Calm     86 % 0.0 in
21:57 11.4 °F 9.3 °F 1012.8 in Calm     87 % 0.0 in
22:02 11.2 °F 9.1 °F 1012.8 in Calm     87 % 0.0 in
22:07 11.2 °F 9.3 °F 1012.8 in Calm     88 % 0.0 in
22:12 11.2 °F 9.5 °F 1012.8 in Calm     89 % 0.0 in
22:17 11.3 °F 9.4 °F 1012.8 in North 1.6 mph 3.2 mph 88 % 0.0 in
22:22 11.2 °F 9.3 °F 1012.8 in Calm   3.2 mph 88 % 0.0 in
22:27 10.9 °F 8.8 °F 1012.8 in Calm   3.2 mph 87 % 0.0 in
22:32 10.7 °F 9.0 °F 1012.8 in Calm   1.6 mph 89 % 0.0 in
22:37 10.7 °F 9.0 °F 1012.8 in Calm   1.6 mph 89 % 0.0 in
22:47 10.6 °F 8.9 °F 1012.8 in Calm   3.2 mph 89 % 0.0 in
22:52 10.7 °F 9.1 °F 1012.8 in Calm   3.2 mph 90 % 0.0 in
23:02 10.3 °F 8.7 °F 1012.8 in Calm   1.6 mph 90 % 0.0 in
23:07 10.4 °F 9.0 °F 1012.8 in North 1.6 mph 1.6 mph 91 % 0.0 in
23:12 10.5 °F 8.9 °F 1012.4 in NNE 3.2 mph 3.2 mph 90 % 0.0 in
23:22 10.7 °F 9.1 °F 1012.4 in Calm   6.4 mph 90 % 0.0 in
23:27 10.6 °F 8.9 °F 1012.4 in Calm   6.4 mph 89 % 0.0 in
23:32 10.3 °F 8.6 °F 1012.1 in Calm   4.8 mph 89 % 0.0 in
23:37 10.2 °F 8.6 °F 1012.4 in NW 1.6 mph 3.2 mph 90 % 0.0 in
23:42 10.2 °F 8.8 °F 1012.1 in Calm   1.6 mph 91 % 0.0 in
23:47 10.4 °F 9.0 °F 1012.1 in NW 1.6 mph 1.6 mph 91 % 0.0 in
23:52 10.1 °F 8.7 °F 1012.1 in WNW 3.2 mph 3.2 mph 91 % 0.0 in
23:57 9.8 °F 8.6 °F 1012.1 in WNW 1.6 mph 3.2 mph 92 % 0.0 in
Meteo18
Compliments of Weather Underground - 4 mb

Script developed by  Jim McMurry - jmcmurry@mwt.net Adapted for the template by  Wim van der Kuil - Leuven-Template.eu

You find our weather info also at:

European Weather Network

Weather Underground

Equipment we use:

Weather-station
Davis Vue

Weather-program
Meteobridge

Weather-server
Raspberry PI 2 B+

Provider
1 and 1

Davis Vue

Meteobridge

Raspberry PI 2 B+

1 and 1